Time;durP1;ratioP1;P1;durP2;ratioP2;P2;SDS_P1;SDS_P2;PMS_P1;PMS_P2;Temp;Humidity;BMP_temperature;BMP_pressure;BME280_temperature;BME280_humidity;BME280_pressure;Samples;Min_cycle;Max_cycle;Signal;HPM_P1;HPM_P2
2023/07/25 00:02:24;;;;;;;8.93;4.05;;;15.90;99.90;;;;;;5015218;28;20021;-82
2023/07/25 00:04:50;;;;;;;4.45;3.53;;;15.80;99.90;;;;;;5014187;28;20026;-82
2023/07/25 00:07:15;;;;;;;6.32;3.25;;;15.80;99.90;;;;;;5014968;28;20026;-81
2023/07/25 00:09:41;;;;;;;8.40;2.75;;;15.80;99.90;;;;;;5015014;28;20551;-82
2023/07/25 00:12:07;;;;;;;8.60;3.80;;;15.80;99.90;;;;;;5014149;28;20091;-82
2023/07/25 00:14:34;;;;;;;7.32;3.10;;;15.80;99.90;;;;;;5014764;28;20030;-82
2023/07/25 00:17:00;;;;;;;5.95;2.78;;;15.80;99.90;;;;;;5014679;28;20496;-82
2023/07/25 00:19:26;;;;;;;12.40;3.75;;;15.70;99.90;;;;;;5014300;28;20091;-82
2023/07/25 00:21:52;;;;;;;8.25;4.30;;;16.30;99.90;;;;;;5014726;28;20505;-82
2023/07/25 00:24:17;;;;;;;4.88;2.60;;;15.80;99.90;;;;;;5014506;28;20474;-82
2023/07/25 00:26:43;;;;;;;4.15;2.88;;;15.90;99.90;;;;;;5013742;28;20486;-82
2023/07/25 00:29:08;;;;;;;5.30;2.90;;;15.80;99.90;;;;;;5014613;28;20076;-82
2023/07/25 00:31:34;;;;;;;3.10;2.80;;;15.70;99.90;;;;;;5014596;28;20026;-82
2023/07/25 00:34:00;;;;;;;8.15;3.28;;;15.70;99.90;;;;;;5014351;28;20029;-82
2023/07/25 00:36:25;;;;;;;6.63;3.00;;;15.90;99.90;;;;;;5014918;28;20038;-82
2023/07/25 00:38:51;;;;;;;9.85;3.20;;;15.70;99.90;;;;;;5014567;28;20017;-82
2023/07/25 00:41:17;;;;;;;4.35;3.17;;;15.80;99.90;;;;;;5014065;28;20465;-82
2023/07/25 00:43:42;;;;;;;6.68;2.47;;;15.70;99.90;;;;;;5014227;28;20030;-82
2023/07/25 00:46:08;;;;;;;9.10;2.70;;;15.80;99.90;;;;;;5014430;28;20033;-82
2023/07/25 00:48:34;;;;;;;3.60;2.28;;;15.80;99.90;;;;;;5013514;28;20034;-82
2023/07/25 00:50:59;;;;;;;8.48;3.10;;;15.80;99.90;;;;;;5014530;28;20053;-81
2023/07/25 00:53:26;;;;;;;5.28;2.75;;;15.80;99.90;;;;;;5014487;28;20030;-82
2023/07/25 00:55:51;;;;;;;2.70;2.17;;;15.90;99.90;;;;;;5013512;28;20030;-82
2023/07/25 00:58:18;;;;;;;9.13;3.03;;;15.80;99.90;;;;;;5014153;28;20071;-82
2023/07/25 01:00:44;;;;;;;4.65;2.55;;;16.00;99.90;;;;;;5013849;28;20106;-82
2023/07/25 01:03:11;;;;;;;10.05;3.13;;;15.80;99.90;;;;;;5013640;28;20580;-82
2023/07/25 01:05:41;;;;;;;5.65;2.95;;;15.80;99.90;;;;;;5014079;28;20108;-82
2023/07/25 01:08:07;;;;;;;4.93;2.70;;;15.80;99.90;;;;;;5013591;28;20470;-82
2023/07/25 01:10:34;;;;;;;5.68;2.45;;;15.90;99.90;;;;;;5013513;28;20044;-82
2023/07/25 01:13:02;;;;;;;11.68;3.58;;;15.80;99.90;;;;;;5014439;28;20034;-82
2023/07/25 01:15:29;;;;;;;8.25;3.55;;;15.80;99.90;;;;;;5012624;28;20540;-82
2023/07/25 01:17:55;;;;;;;6.05;2.70;;;15.80;99.90;;;;;;5013650;28;20087;-82
2023/07/25 01:20:21;;;;;;;8.13;2.83;;;15.80;99.90;;;;;;5013119;28;20049;-82
2023/07/25 01:22:47;;;;;;;6.32;2.53;;;15.80;99.90;;;;;;5012685;28;20036;-82
2023/07/25 01:25:14;;;;;;;7.70;3.05;;;15.80;99.90;;;;;;5012136;28;20445;-82
2023/07/25 01:27:39;;;;;;;8.32;2.80;;;15.80;99.90;;;;;;5012149;28;20060;-82
2023/07/25 01:30:06;;;;;;;5.47;2.70;;;15.80;99.90;;;;;;5011650;28;20650;-82
2023/07/25 01:32:32;;;;;;;6.63;2.88;;;15.70;99.90;;;;;;5012207;28;20060;-82
2023/07/25 01:34:58;;;;;;;8.52;4.00;;;15.70;99.90;;;;;;5012315;28;20026;-82
2023/07/25 01:37:23;;;;;;;5.90;3.10;;;15.70;99.90;;;;;;5011642;28;20062;-82
2023/07/25 01:39:49;;;;;;;6.63;3.03;;;15.60;99.90;;;;;;5011787;28;20018;-82
2023/07/25 01:42:14;;;;;;;9.93;3.50;;;15.60;99.90;;;;;;5012368;28;20044;-82
2023/07/25 01:44:40;;;;;;;5.40;3.25;;;15.60;99.90;;;;;;5011910;28;20462;-82
2023/07/25 01:47:06;;;;;;;6.40;3.95;;;15.60;99.90;;;;;;5012461;28;20021;-82
2023/07/25 01:49:31;;;;;;;4.53;2.97;;;15.60;99.90;;;;;;5011860;28;20136;-82
2023/07/25 01:51:57;;;;;;;7.28;3.45;;;15.70;99.90;;;;;;5011242;28;20030;-82
2023/07/25 01:54:22;;;;;;;6.07;2.28;;;15.60;99.90;;;;;;5012415;28;20025;-82
2023/07/25 01:56:48;;;;;;;7.40;2.72;;;15.80;99.90;;;;;;5011989;28;20438;-83
2023/07/25 01:59:14;;;;;;;5.75;2.85;;;15.70;99.90;;;;;;5011747;28;20030;-82
2023/07/25 02:01:39;;;;;;;5.82;2.65;;;15.70;99.90;;;;;;5012374;28;20053;-83
2023/07/25 02:04:05;;;;;;;4.80;2.35;;;15.70;99.90;;;;;;5013210;28;20029;-82
2023/07/25 02:06:30;;;;;;;5.22;2.97;;;15.70;99.90;;;;;;5012245;28;20060;-82
2023/07/25 02:08:56;;;;;;;5.55;2.90;;;15.70;99.90;;;;;;5012510;28;20029;-83
2023/07/25 02:11:21;;;;;;;6.05;2.78;;;15.70;99.90;;;;;;5011312;28;20714;-82
2023/07/25 02:13:47;;;;;;;6.90;2.85;;;15.70;99.90;;;;;;5011932;28;20026;-82
2023/07/25 02:16:12;;;;;;;4.63;2.83;;;15.70;99.90;;;;;;5011974;28;20045;-82
2023/07/25 02:18:38;;;;;;;5.20;2.10;;;15.80;99.90;;;;;;5011262;28;20053;-82
2023/07/25 02:21:04;;;;;;;6.00;3.13;;;15.70;99.90;;;;;;5012513;28;20031;-82
2023/07/25 02:23:29;;;;;;;7.30;2.75;;;15.70;99.90;;;;;;5012039;28;20377;-82
2023/07/25 02:25:55;;;;;;;9.18;2.78;;;15.60;99.90;;;;;;5011509;28;20053;-82
2023/07/25 02:28:20;;;;;;;7.05;2.50;;;15.70;99.90;;;;;;5012656;28;20022;-82
2023/07/25 02:30:46;;;;;;;5.05;2.63;;;15.70;99.90;;;;;;5011574;28;20025;-82
2023/07/25 02:33:13;;;;;;;3.78;2.53;;;15.70;99.90;;;;;;5011162;28;20164;-83
2023/07/25 02:35:38;;;;;;;13.93;2.85;;;15.60;99.90;;;;;;5012270;28;20053;-83
2023/07/25 02:38:04;;;;;;;4.18;2.58;;;15.60;99.90;;;;;;5012698;28;20022;-83
2023/07/25 02:40:29;;;;;;;7.28;2.63;;;15.60;99.90;;;;;;5011540;28;20029;-82
2023/07/25 02:42:55;;;;;;;6.38;3.08;;;15.60;99.90;;;;;;5012865;28;20029;-82
2023/07/25 02:45:21;;;;;;;2.85;2.22;;;15.50;99.90;;;;;;5012706;28;20120;-83
2023/07/25 02:47:46;;;;;;;3.53;2.53;;;15.50;99.90;;;;;;5011711;28;20026;-83
2023/07/25 02:50:12;;;;;;;6.43;2.60;;;15.40;99.90;;;;;;5012548;28;20054;-82
2023/07/25 02:52:37;;;;;;;5.57;2.95;;;15.40;99.90;;;;;;5012227;28;20018;-82
2023/07/25 02:55:04;;;;;;;9.38;2.90;;;15.40;99.90;;;;;;5011547;28;20032;-82
2023/07/25 02:57:30;;;;;;;5.63;2.42;;;15.50;99.90;;;;;;5012339;28;20069;-83
2023/07/25 02:59:56;;;;;;;6.85;2.45;;;15.40;99.90;;;;;;5012641;28;20048;-83
2023/07/25 03:02:21;;;;;;;7.80;2.50;;;15.40;99.90;;;;;;5011894;28;20481;-83
2023/07/25 03:04:47;;;;;;;4.13;2.15;;;15.70;99.90;;;;;;5012201;28;20018;-82
2023/07/25 03:07:12;;;;;;;8.90;3.03;;;15.30;99.90;;;;;;5012320;28;20021;-82
2023/07/25 03:09:40;;;;;;;7.90;2.90;;;15.30;99.90;;;;;;5011358;28;20026;-83
2023/07/25 03:12:06;;;;;;;6.53;2.30;;;15.30;99.90;;;;;;5012453;28;20045;-83
2023/07/25 03:14:31;;;;;;;6.38;1.80;;;15.30;99.90;;;;;;5011780;28;20426;-83
2023/07/25 03:16:57;;;;;;;7.22;2.30;;;15.40;99.90;;;;;;5011823;28;20062;-82
2023/07/25 03:19:23;;;;;;;7.50;2.85;;;15.40;99.90;;;;;;5012222;28;20370;-83
2023/07/25 03:21:48;;;;;;;5.07;2.13;;;15.40;99.90;;;;;;5011294;28;20038;-83
2023/07/25 03:24:14;;;;;;;8.45;2.90;;;15.40;99.90;;;;;;5011992;28;20057;-83
2023/07/25 03:26:39;;;;;;;8.65;2.40;;;15.40;99.90;;;;;;5012057;28;20022;-83
2023/07/25 03:29:05;;;;;;;4.82;1.80;;;15.40;99.90;;;;;;5011657;28;20445;-83
2023/07/25 03:31:31;;;;;;;9.70;3.03;;;15.40;99.90;;;;;;5012130;28;20025;-83
2023/07/25 03:33:56;;;;;;;5.95;1.98;;;16.00;99.90;;;;;;5012082;28;20393;-83
2023/07/25 03:36:24;;;;;;;7.35;2.58;;;15.40;99.90;;;;;;5011282;28;20038;-83
2023/07/25 03:38:49;;;;;;;3.22;2.17;;;15.50;99.90;;;;;;5011903;28;20064;-82
2023/07/25 03:41:15;;;;;;;9.27;2.10;;;15.50;99.90;;;;;;5012241;28;20105;-83
2023/07/25 03:43:40;;;;;;;8.20;2.63;;;15.70;99.90;;;;;;5012974;28;20097;-83
2023/07/25 03:46:06;;;;;;;7.00;2.35;;;15.50;99.90;;;;;;5015627;28;20037;-83
2023/07/25 03:48:32;;;;;;;7.07;1.92;;;15.50;99.90;;;;;;5015296;28;20033;-82
2023/07/25 03:50:58;;;;;;;4.72;2.22;;;15.50;99.90;;;;;;5014888;28;20033;-83
2023/07/25 03:53:23;;;;;;;8.90;3.00;;;15.40;99.90;;;;;;5015267;28;20030;-83
2023/07/25 03:55:49;;;;;;;6.88;2.65;;;15.50;99.90;;;;;;5015278;28;20034;-83
2023/07/25 03:58:15;;;;;;;5.30;2.75;;;15.40;99.90;;;;;;5014777;28;20104;-83
2023/07/25 04:00:43;;;;;;;7.22;2.45;;;15.40;99.90;;;;;;5015434;28;20072;-83
2023/07/25 04:03:08;;;;;;;6.85;2.40;;;15.50;99.90;;;;;;5015413;28;20105;-83
2023/07/25 04:05:34;;;;;;;7.18;2.25;;;15.40;99.90;;;;;;5014218;28;20100;-83
2023/07/25 04:08:00;;;;;;;6.10;2.75;;;15.40;99.90;;;;;;5015158;28;20022;-83
2023/07/25 04:10:26;;;;;;;4.35;2.45;;;15.40;99.90;;;;;;5015156;28;20022;-83
2023/07/25 04:12:52;;;;;;;2.70;2.03;;;15.30;99.90;;;;;;5014271;28;20029;-83
2023/07/25 04:15:17;;;;;;;10.02;2.97;;;15.30;99.90;;;;;;5014967;28;20117;-82
2023/07/25 04:17:43;;;;;;;8.05;2.53;;;15.40;99.90;;;;;;5014826;28;20472;-82
2023/07/25 04:20:09;;;;;;;4.32;2.25;;;15.20;99.90;;;;;;5014261;28;20067;-83
2023/07/25 04:22:34;;;;;;;5.35;2.10;;;15.30;99.90;;;;;;5014604;28;20041;-82
2023/07/25 04:25:00;;;;;;;7.20;2.10;;;15.30;99.90;;;;;;5013830;28;20136;-84
2023/07/25 04:27:28;;;;;;;5.00;2.20;;;15.30;99.90;;;;;;5014792;28;20041;-82
2023/07/25 04:29:54;;;;;;;7.10;2.83;;;15.40;99.90;;;;;;5014500;28;20493;-83
2023/07/25 04:32:19;;;;;;;6.70;2.13;;;15.40;99.90;;;;;;5011527;28;20030;-83
2023/07/25 04:34:45;;;;;;;7.70;2.08;;;15.50;99.90;;;;;;5014257;28;20025;-83
2023/07/25 04:37:10;;;;;;;6.85;2.20;;;15.50;99.90;;;;;;5014458;28;20119;-83
2023/07/25 04:39:36;;;;;;;7.55;2.30;;;15.60;99.90;;;;;;5013333;28;20061;-82
2023/07/25 04:42:02;;;;;;;9.45;2.20;;;15.60;99.90;;;;;;5014130;28;20038;-82
2023/07/25 04:44:28;;;;;;;5.50;2.22;;;15.70;99.90;;;;;;5014353;28;20046;-82
2023/07/25 04:46:53;;;;;;;10.23;1.88;;;15.90;99.90;;;;;;5012837;28;20378;-82
2023/07/25 04:49:19;;;;;;;6.85;2.80;;;15.70;99.90;;;;;;5013588;28;20034;-82
2023/07/25 04:51:44;;;;;;;5.93;1.77;;;15.80;99.90;;;;;;5013586;28;20041;-83
2023/07/25 04:54:10;;;;;;;9.35;2.20;;;15.80;99.90;;;;;;5013157;28;20517;-83
2023/07/25 04:56:35;;;;;;;5.43;2.40;;;15.80;99.90;;;;;;5012779;28;20509;-82
2023/07/25 04:59:01;;;;;;;6.50;2.30;;;16.00;99.90;;;;;;5013600;28;20030;-83
2023/07/25 05:01:27;;;;;;;7.72;2.83;;;16.30;99.90;;;;;;5011197;28;20037;-83
2023/07/25 05:03:52;;;;;;;8.00;2.20;;;16.30;99.90;;;;;;5007194;28;20077;-82
2023/07/25 05:06:18;;;;;;;6.60;2.70;;;15.90;99.90;;;;;;5004699;28;20018;-83
2023/07/25 05:08:43;;;;;;;7.90;2.80;;;15.80;99.90;;;;;;5016164;28;20088;-83
2023/07/25 05:11:09;;;;;;;10.52;2.65;;;15.90;99.90;;;;;;5012152;28;20029;-82
2023/07/25 05:13:34;;;;;;;8.15;2.90;;;15.90;99.90;;;;;;5012042;28;20061;-82
2023/07/25 05:16:00;;;;;;;10.18;2.50;;;15.90;99.90;;;;;;5012655;28;20065;-83
2023/07/25 05:18:25;;;;;;;10.52;2.67;;;15.90;99.90;;;;;;5013310;28;20014;-83
2023/07/25 05:20:51;;;;;;;8.38;2.60;;;16.00;99.90;;;;;;5013090;28;20109;-83
2023/07/25 05:23:17;;;;;;;6.57;2.53;;;16.10;99.90;;;;;;5013909;28;20482;-83
2023/07/25 05:25:43;;;;;;;3.97;1.98;;;16.10;99.90;;;;;;5012481;28;20042;-83
2023/07/25 05:28:08;;;;;;;4.50;1.70;;;16.20;99.90;;;;;;5013290;28;20014;-83
2023/07/25 05:30:34;;;;;;;9.00;2.28;;;16.20;99.90;;;;;;5011865;28;20076;-83
2023/07/25 05:32:59;;;;;;;8.68;2.15;;;16.20;99.90;;;;;;5012385;28;20029;-82
2023/07/25 05:35:25;;;;;;;7.40;2.50;;;16.30;99.90;;;;;;5011747;28;20034;-83
2023/07/25 05:37:54;;;;;;;7.50;2.35;;;16.30;99.90;;;;;;5012244;28;20129;-83
2023/07/25 05:40:19;;;;;;;7.05;2.50;;;16.30;99.90;;;;;;5010764;28;20030;-83
2023/07/25 05:42:47;;;;;;;6.68;2.33;;;16.30;99.90;;;;;;5011900;28;20029;-83
2023/07/25 05:45:13;;;;;;;4.53;1.83;;;16.30;99.90;;;;;;5012980;28;20397;-83
2023/07/25 05:47:38;;;;;;;6.53;2.15;;;16.30;99.90;;;;;;5009942;28;20029;-83
2023/07/25 05:50:05;;;;;;;6.43;2.47;;;16.30;99.90;;;;;;5011136;28;20062;-83
2023/07/25 05:52:32;;;;;;;7.00;2.28;;;16.30;99.90;;;;;;5012550;28;20061;-83
2023/07/25 05:54:57;;;;;;;7.80;2.00;;;16.40;99.90;;;;;;5010104;28;20114;-83
2023/07/25 05:57:23;;;;;;;8.90;2.70;;;16.30;99.90;;;;;;5011952;28;20525;-83
2023/07/25 05:59:48;;;;;;;9.70;2.58;;;16.30;99.90;;;;;;5012077;28;20026;-83
2023/07/25 06:02:16;;;;;;;5.55;2.17;;;16.40;99.90;;;;;;5012312;28;20064;-82
2023/07/25 06:04:45;;;;;;;6.72;2.20;;;16.40;99.90;;;;;;5011989;28;20030;-82
2023/07/25 06:07:14;;;;;;;6.43;2.13;;;16.40;99.90;;;;;;5012627;28;20474;-82
2023/07/25 06:09:40;;;;;;;7.20;2.40;;;16.40;99.90;;;;;;5013056;28;20533;-83
2023/07/25 06:12:08;;;;;;;6.57;2.45;;;16.40;99.90;;;;;;5012258;28;20435;-83
2023/07/25 06:14:33;;;;;;;4.22;1.90;;;16.40;99.90;;;;;;5012727;28;20034;-83
2023/07/25 06:16:59;;;;;;;11.52;2.47;;;16.70;99.90;;;;;;5012434;28;20473;-84
2023/07/25 06:19:25;;;;;;;8.18;2.88;;;16.40;99.90;;;;;;5011870;28;20074;-83
2023/07/25 06:21:50;;;;;;;7.60;2.42;;;16.40;99.90;;;;;;5012392;28;20114;-83
2023/07/25 06:24:16;;;;;;;8.10;2.47;;;16.40;99.90;;;;;;5012605;28;20026;-83
2023/07/25 06:26:42;;;;;;;9.68;2.28;;;16.40;99.90;;;;;;5012128;28;20186;-84
2023/07/25 06:29:07;;;;;;;9.27;2.33;;;16.80;99.90;;;;;;5012280;28;20022;-83
2023/07/25 06:31:33;;;;;;;9.32;2.75;;;16.40;99.90;;;;;;5011621;28;20032;-84
2023/07/25 06:33:59;;;;;;;7.20;2.67;;;16.50;99.90;;;;;;5012504;28;20108;-84
2023/07/25 06:36:25;;;;;;;6.97;2.33;;;16.50;99.90;;;;;;5012491;28;20116;-84
2023/07/25 06:38:50;;;;;;;8.80;3.22;;;16.50;99.90;;;;;;5011575;28;20509;-84
2023/07/25 06:41:16;;;;;;;9.40;2.45;;;16.60;99.90;;;;;;5012236;28;20382;-84
2023/07/25 06:43:41;;;;;;;5.47;2.00;;;16.60;99.90;;;;;;5008055;28;20021;-83
2023/07/25 06:46:07;;;;;;;5.90;2.20;;;17.00;99.90;;;;;;5012215;28;20370;-84
2023/07/25 06:48:32;;;;;;;8.05;2.42;;;16.60;99.90;;;;;;5011576;28;20021;-84
2023/07/25 06:50:58;;;;;;;8.25;1.90;;;16.60;99.90;;;;;;5012224;28;20022;-83
2023/07/25 06:53:23;;;;;;;8.00;1.25;;;16.60;99.90;;;;;;5010683;28;20022;-83
2023/07/25 06:55:49;;;;;;;9.95;1.60;;;16.70;99.90;;;;;;5011153;28;20207;-83
2023/07/25 06:58:15;;;;;;;5.47;1.75;;;16.70;99.90;;;;;;5011817;28;20065;-83
2023/07/25 07:00:40;;;;;;;8.00;2.13;;;16.60;99.90;;;;;;5010841;28;20033;-83
2023/07/25 07:03:07;;;;;;;7.60;1.98;;;16.70;99.90;;;;;;5011829;28;20018;-83
2023/07/25 07:05:32;;;;;;;7.07;1.50;;;16.70;99.90;;;;;;5011659;28;20034;-82
2023/07/25 07:07:59;;;;;;;4.70;1.73;;;16.70;99.90;;;;;;5011681;28;20386;-83
2023/07/25 07:10:24;;;;;;;7.85;1.70;;;16.60;99.90;;;;;;5012335;28;20113;-83
2023/07/25 07:12:52;;;;;;;5.47;2.17;;;16.70;99.90;;;;;;5011795;28;20122;-83
2023/07/25 07:15:18;;;;;;;5.97;1.90;;;16.70;99.90;;;;;;5010767;28;20088;-83
2023/07/25 07:17:43;;;;;;;4.55;1.35;;;16.80;99.90;;;;;;5012223;28;20030;-81
2023/07/25 07:20:09;;;;;;;3.15;1.08;;;16.80;99.90;;;;;;5014694;28;20026;-83
2023/07/25 07:22:35;;;;;;;3.38;1.60;;;16.80;99.90;;;;;;5014298;28;20470;-81
2023/07/25 07:25:00;;;;;;;4.47;1.38;;;16.80;99.90;;;;;;5015369;28;20049;-81
2023/07/25 07:27:26;;;;;;;6.82;1.48;;;16.80;99.90;;;;;;5015225;28;20079;-82
2023/07/25 07:29:52;;;;;;;2.97;1.17;;;16.80;99.90;;;;;;5013944;28;20026;-83
2023/07/25 07:32:18;;;;;;;4.97;1.58;;;16.90;99.90;;;;;;5014633;28;20029;-83
2023/07/25 07:34:44;;;;;;;7.97;2.47;;;16.80;99.90;;;;;;5015364;28;20386;-81
2023/07/25 07:37:10;;;;;;;3.15;1.08;;;16.40;99.90;;;;;;5014997;28;20188;-81
2023/07/25 07:39:37;;;;;;;6.32;1.67;;;16.90;99.90;;;;;;5015219;28;20088;-82
2023/07/25 07:42:03;;;;;;;5.78;1.20;;;16.90;99.90;;;;;;5014571;28;20036;-83
2023/07/25 07:44:29;;;;;;;8.00;1.75;;;16.90;99.90;;;;;;5014833;28;20029;-80
2023/07/25 07:46:55;;;;;;;4.63;1.33;;;17.00;99.90;;;;;;5015716;28;20022;-82
2023/07/25 07:49:20;;;;;;;6.82;2.35;;;17.00;99.90;;;;;;5014670;28;20030;-81
2023/07/25 07:51:46;;;;;;;4.72;1.20;;;17.00;99.90;;;;;;5015260;28;20064;-83
2023/07/25 07:54:11;;;;;;;5.47;1.25;;;17.10;99.90;;;;;;5014500;28;20097;-84
2023/07/25 07:56:37;;;;;;;2.88;1.00;;;17.00;99.90;;;;;;5013134;28;20458;-88
2023/07/25 07:59:03;;;;;;;5.45;1.33;;;17.10;99.90;;;;;;5014437;28;20026;-86
2023/07/25 08:01:28;;;;;;;1176.28;87.05;;;17.10;99.90;;;;;;5013922;28;20461;-94
2023/07/25 08:03:54;;;;;;;28.45;2.60;;;17.10;99.90;;;;;;5014774;28;20028;-84
2023/07/25 08:06:19;;;;;;;45.38;3.10;;;17.00;99.90;;;;;;5014572;28;20026;-83
2023/07/25 08:08:45;;;;;;;5.82;1.30;;;17.00;99.90;;;;;;5019199;28;20025;-81
2023/07/25 08:11:11;;;;;;;7.60;1.20;;;17.00;99.90;;;;;;5014451;28;20036;-82
2023/07/25 08:13:36;;;;;;;3.15;1.13;;;16.90;99.90;;;;;;5014615;28;20022;-80
2023/07/25 08:16:02;;;;;;;4.60;0.88;;;17.00;99.90;;;;;;5014339;28;20099;-81
2023/07/25 08:18:28;;;;;;;3.10;0.80;;;17.00;99.90;;;;;;5012745;28;20030;-80
2023/07/25 08:20:58;;;;;;;4.00;0.95;;;17.00;99.90;;;;;;5013224;28;20022;-81
2023/07/25 08:23:39;;;;;;;6.43;1.00;;;17.00;99.90;;;;;;5013522;28;20026;-84
2023/07/25 08:26:17;;;;;;;12.73;1.75;;;17.10;99.90;;;;;;5011205;28;20058;-84
2023/07/25 08:28:42;;;;;;;6.53;1.95;;;17.00;99.90;;;;;;4998446;28;20073;-84
2023/07/25 08:31:08;;;;;;;6.07;0.90;;;17.00;99.90;;;;;;5013631;28;20053;-84
2023/07/25 08:33:46;;;;;;;1.40;0.75;;;17.00;99.90;;;;;;5013593;28;20451;-82
2023/07/25 08:36:11;;;;;;;5.20;0.98;;;16.90;99.90;;;;;;5015040;28;20114;-83
2023/07/25 08:38:37;;;;;;;5.18;1.20;;;16.90;99.90;;;;;;5013168;28;20470;-85
2023/07/25 08:41:06;;;;;;;3.65;1.08;;;16.90;99.90;;;;;;5014420;28;20030;-83
2023/07/25 08:43:38;;;;;;;1.23;0.60;;;16.90;99.90;;;;;;5014600;28;20032;-84
2023/07/25 08:46:07;;;;;;;3.15;0.73;;;16.90;99.90;;;;;;5013635;28;20026;-82
2023/07/25 08:48:38;;;;;;;3.70;0.68;;;16.90;99.90;;;;;;5013832;28;20140;-83
2023/07/25 08:51:08;;;;;;;2.63;0.60;;;17.00;99.90;;;;;;5014426;28;20033;-81
2023/07/25 08:53:41;;;;;;;4.05;0.75;;;17.00;99.90;;;;;;5013642;28;20029;-88
2023/07/25 08:56:07;;;;;;;5.03;1.10;;;17.00;99.90;;;;;;5014798;28;20047;-89
2023/07/25 08:58:34;;;;;;;4.07;0.73;;;17.00;99.90;;;;;;5030149;28;20022;-90
2023/07/25 09:01:00;;;;;;;4.35;1.05;;;17.00;99.90;;;;;;5015643;28;20022;-95
2023/07/25 09:03:27;;;;;;;4.07;0.93;;;17.00;99.90;;;;;;5014548;28;20110;-91
2023/07/25 09:05:52;;;;;;;3.83;0.70;;;16.90;99.90;;;;;;5015098;28;20022;-90
2023/07/25 09:08:18;;;;;;;2.67;0.65;;;17.00;99.90;;;;;;5013645;28;20033;-88
2023/07/25 09:10:45;;;;;;;2.35;0.60;;;17.00;99.90;;;;;;5011761;28;20026;-88
2023/07/25 09:13:11;;;;;;;4.47;0.70;;;16.80;99.90;;;;;;5014826;28;20046;-85
2023/07/25 09:15:38;;;;;;;1.80;0.70;;;17.10;99.90;;;;;;5012990;28;20091;-82
2023/07/25 09:18:03;;;;;;;3.15;1.00;;;17.10;99.90;;;;;;5013701;28;20057;-82
2023/07/25 09:20:29;;;;;;;7.90;1.13;;;17.20;99.90;;;;;;5012699;28;20077;-82
2023/07/25 09:22:54;;;;;;;3.00;0.90;;;17.10;99.90;;;;;;5013629;28;20026;-82
2023/07/25 09:25:20;;;;;;;1.52;0.70;;;17.10;99.90;;;;;;5013098;28;20386;-82
2023/07/25 09:27:46;;;;;;;2.65;0.57;;;17.20;99.90;;;;;;5010750;28;20485;-82
2023/07/25 09:30:13;;;;;;;1.02;0.52;;;17.30;99.90;;;;;;5011883;28;20032;-83
2023/07/25 09:32:43;;;;;;;4.15;0.65;;;17.20;99.90;;;;;;5011418;28;20014;-82
2023/07/25 09:35:45;;;;;;;7.78;1.48;;;17.20;99.90;;;;;;5011004;28;20033;-83
2023/07/25 09:38:16;;;;;;;3.75;0.80;;;17.30;99.90;;;;;;5008547;28;20402;-83
2023/07/25 09:40:42;;;;;;;4.80;1.08;;;17.30;99.90;;;;;;5009940;28;20030;-84
2023/07/25 09:43:08;;;;;;;4.35;0.90;;;17.30;99.90;;;;;;5015988;22;20459;-83
2023/07/25 09:45:42;;;;;;;4.03;0.80;;;17.30;99.90;;;;;;4993193;28;20402;-84
2023/07/25 09:48:08;;;;;;;3.50;0.60;;;18.00;99.90;;;;;;4991053;28;20037;-84
2023/07/25 09:50:34;;;;;;;3.22;0.60;;;17.40;99.90;;;;;;4992480;28;20026;-83
2023/07/25 09:53:09;;;;;;;2.53;0.73;;;17.40;99.90;;;;;;4996532;28;20026;-84
2023/07/25 09:55:38;;;;;;;1.23;0.80;;;17.60;99.90;;;;;;4992038;28;20034;-83
2023/07/25 09:58:15;;;;;;;1.63;0.70;;;17.40;99.90;;;;;;4990335;28;20778;-84
2023/07/25 10:00:58;;;;;;;3.35;0.85;;;17.90;99.90;;;;;;4991930;28;20030;-86
2023/07/25 10:03:50;;;;;;;2.05;0.80;;;17.40;99.90;;;;;;4990216;28;20029;-85
2023/07/25 10:06:17;;;;;;;1.15;0.57;;;17.60;99.90;;;;;;4958351;23;20439;-84
2023/07/25 10:12:06;;;;;;;2.20;0.50;;;17.40;99.90;;;;;;6066780;22;20016;-85
2023/07/25 10:23:34;;;;;;;1.85;0.50;;;17.40;99.90;;;;;;5025939;22;20077;-83
2023/07/25 10:26:12;;;;;;;3.88;0.70;;;17.40;99.90;;;;;;4970462;28;20054;-83
2023/07/25 10:28:41;;;;;;;1.50;0.60;;;17.30;99.50;;;;;;4972520;28;20074;-83
2023/07/25 10:31:08;;;;;;;1.30;0.73;;;17.50;99.00;;;;;;4970649;28;20431;-82
2023/07/25 10:33:38;;;;;;;1.80;0.50;;;17.60;98.80;;;;;;4971945;28;20106;-84
2023/07/25 10:37:12;;;;;;;0.60;0.47;;;18.50;99.50;;;;;;4989045;28;20118;-83
2023/07/25 10:40:01;;;;;;;1.73;0.80;;;17.60;99.60;;;;;;4970014;28;20436;-82
2023/07/25 10:42:58;;;;;;;1.88;0.82;;;17.70;99.40;;;;;;5039895;23;20053;-83
2023/07/25 10:45:36;;;;;;;1.30;0.70;;;17.70;99.90;;;;;;5071903;28;20097;-82
2023/07/25 10:50:45;;;;;;;1.48;0.70;;;17.80;99.80;;;;;;5050289;28;20057;-84
2023/07/25 10:53:14;;;;;;;4.03;1.05;;;17.80;99.90;;;;;;5054778;28;20112;-84
2023/07/25 10:56:16;;;;;;;0.90;0.68;;;18.20;99.90;;;;;;5056023;28;20035;-84
2023/07/25 10:59:12;;;;;;;5.22;0.77;;;17.80;99.90;;;;;;4973160;28;20026;-83
2023/07/25 11:01:48;;;;;;;0.85;0.50;;;17.80;99.90;;;;;;4973310;28;20054;-83
2023/07/25 11:04:29;;;;;;;2.15;0.50;;;17.80;99.90;;;;;;4974521;28;20030;-83
2023/07/25 11:07:10;;;;;;;2.35;0.60;;;17.90;99.70;;;;;;4973328;28;20082;-83
2023/07/25 11:09:41;;;;;;;2.20;0.50;;;17.90;99.90;;;;;;5028081;28;20037;-83
2023/07/25 11:12:13;;;;;;;1.20;0.60;;;17.90;99.90;;;;;;5055435;28;20065;-84
2023/07/25 11:14:58;;;;;;;4.88;0.80;;;17.90;99.90;;;;;;5054555;28;20060;-84
2023/07/25 11:17:47;;;;;;;2.67;0.73;;;19.10;99.90;;;;;;5055117;28;20362;-83
2023/07/25 11:20:25;;;;;;;3.10;0.70;;;17.90;99.90;;;;;;5045587;28;20033;-84
2023/07/25 11:23:11;;;;;;;3.20;0.60;;;17.90;99.90;;;;;;5055568;23;20049;-84
2023/07/25 11:25:53;;;;;;;0.95;0.57;;;17.90;99.90;;;;;;5035193;28;20038;-83
2023/07/25 11:28:21;;;;;;;2.90;0.85;;;18.30;99.90;;;;;;5035072;28;20033;-84
2023/07/25 11:30:46;;;;;;;9.52;1.05;;;18.30;99.90;;;;;;5034770;28;20029;-83
2023/07/25 11:33:40;;;;;;;6.18;1.25;;;17.90;99.90;;;;;;5034750;28;20104;-83
2023/07/25 11:36:06;;;;;;;4.35;0.73;;;17.90;99.90;;;;;;5032026;28;20041;-83
2023/07/25 11:38:44;;;;;;;2.47;0.98;;;18.00;99.90;;;;;;5035097;28;20061;-83
2023/07/25 11:41:10;;;;;;;3.17;0.55;;;17.90;99.90;;;;;;5036922;28;20021;-83
2023/07/25 11:43:35;;;;;;;2.10;0.68;;;17.90;99.90;;;;;;5034654;28;20508;-83
2023/07/25 11:46:01;;;;;;;1.85;0.63;;;17.90;99.90;;;;;;5034561;28;20388;-83
2023/07/25 11:48:33;;;;;;;4.75;0.70;;;17.90;99.90;;;;;;5046099;23;20060;-84
2023/07/25 11:50:59;;;;;;;1.58;0.45;;;17.90;99.90;;;;;;5075320;28;20064;-83
2023/07/25 11:58:51;;;;;;;3.67;0.55;;;18.00;99.90;;;;;;5102880;22;20057;-84
2023/07/25 12:01:54;;;;;;;2.72;0.40;;;18.00;99.90;;;;;;5054732;28;20048;-85
2023/07/25 12:04:44;;;;;;;1.65;0.70;;;18.00;99.90;;;;;;5077644;22;20036;-87
2023/07/25 12:07:22;;;;;;;1.45;0.93;;;18.10;99.90;;;;;;5088994;22;20083;-84
2023/07/25 12:10:01;;;;;;;3.65;1.00;;;17.80;99.90;;;;;;5056863;28;20087;-85
2023/07/25 12:12:44;;;;;;;0.93;0.50;;;18.10;99.90;;;;;;5066309;23;20349;-83
2023/07/25 12:18:50;;;;;;;2.80;0.85;;;18.10;99.90;;;;;;5039074;28;20118;-87
2023/07/25 12:22:10;;;;;;;1.05;0.50;;;18.20;99.90;;;;;;5051047;28;20032;-85
2023/07/25 12:24:51;;;;;;;1.37;0.50;;;17.90;99.90;;;;;;4987855;28;20133;-89
2023/07/25 12:27:18;;;;;;;2.85;0.60;;;18.20;99.90;;;;;;5035602;22;20111;-87
2023/07/25 12:30:11;;;;;;;2.17;0.55;;;18.20;99.90;;;;;;5030337;23;20502;-87
2023/07/25 12:36:11;;;;;;;1.42;0.40;;;18.50;99.90;;;;;;5201253;23;20501;-88
2023/07/25 12:39:02;;;;;;;2.03;0.75;;;18.10;99.60;;;;;;4967250;28;20074;-88
2023/07/25 12:42:17;;;;;;;2.38;0.43;;;18.40;99.30;;;;;;4964914;28;20165;-88
2023/07/25 12:44:44;;;;;;;0.80;0.30;;;18.30;99.50;;;;;;5018498;23;20140;-91
2023/07/25 12:47:21;;;;;;;0.40;0.40;;;18.80;99.90;;;;;;5062997;28;20024;-85
2023/07/25 12:49:46;;;;;;;2.05;0.40;;;18.40;99.90;;;;;;5067369;28;20048;-85
2023/07/25 12:52:12;;;;;;;1.27;0.50;;;18.40;99.80;;;;;;5065354;28;20460;-84
2023/07/25 12:54:38;;;;;;;2.38;0.60;;;18.40;99.30;;;;;;5053325;28;20070;-84
2023/07/25 12:57:04;;;;;;;1.33;0.50;;;18.40;99.80;;;;;;5057292;28;20380;-84
2023/07/25 12:59:29;;;;;;;1.17;0.43;;;18.40;99.50;;;;;;5055725;28;20040;-84
2023/07/25 13:01:58;;;;;;;1.65;0.70;;;18.40;99.70;;;;;;5059585;28;20062;-84
2023/07/25 13:04:23;;;;;;;3.08;0.93;;;18.40;99.90;;;;;;5062635;28;20123;-84
2023/07/25 13:06:49;;;;;;;0.65;0.40;;;18.50;99.90;;;;;;5055393;28;20104;-84
2023/07/25 13:09:15;;;;;;;0.82;0.70;;;18.50;99.90;;;;;;5059292;28;20036;-85
2023/07/25 13:11:40;;;;;;;2.08;0.75;;;18.50;99.90;;;;;;5070067;28;20056;-84
2023/07/25 13:14:06;;;;;;;1.27;0.60;;;18.60;99.90;;;;;;5056672;28;20017;-84
2023/07/25 13:16:31;;;;;;;1.52;0.60;;;18.60;99.90;;;;;;5063859;28;20041;-84
2023/07/25 13:18:57;;;;;;;4.13;0.63;;;18.60;99.90;;;;;;5053294;28;20055;-84
2023/07/25 13:21:23;;;;;;;1.90;0.65;;;18.60;99.90;;;;;;5060867;28;20074;-85